Time;durP1;ratioP1;P1;durP2;ratioP2;P2;SDS_P1;SDS_P2;PMS_P1;PMS_P2;Temp;Humidity;BMP_temperature;BMP_pressure;BME280_temperature;BME280_humidity;BME280_pressure;Samples;Min_cycle;Max_cycle;Signal;HPM_P1;HPM_P2
2022/11/16 00:02:11;;;;;;;2.55;2.08;;;6.70;99.90;;;;;;4398230;32;20147;-80
2022/11/16 00:04:37;;;;;;;3.22;1.25;;;6.70;99.90;;;;;;4371134;32;20203;-76
2022/11/16 00:07:03;;;;;;;3.90;1.77;;;6.60;99.90;;;;;;4386087;32;20123;-80
2022/11/16 00:09:30;;;;;;;1.12;1.05;;;6.70;99.90;;;;;;4397279;32;20094;-79
2022/11/16 00:11:59;;;;;;;5.25;1.73;;;6.70;99.90;;;;;;4397892;32;20089;-81
2022/11/16 00:14:27;;;;;;;2.17;1.62;;;6.70;99.90;;;;;;4400928;32;20514;-80
2022/11/16 00:16:53;;;;;;;4.00;1.98;;;6.80;99.90;;;;;;4397621;32;20081;-80
2022/11/16 00:19:19;;;;;;;5.57;2.28;;;6.70;99.90;;;;;;4384026;32;20097;-77
2022/11/16 00:21:45;;;;;;;9.73;2.50;;;6.60;99.90;;;;;;4397200;32;20696;-78
2022/11/16 00:24:13;;;;;;;4.25;2.67;;;6.60;99.90;;;;;;4397283;32;20102;-79
2022/11/16 00:26:39;;;;;;;5.53;2.67;;;6.70;99.90;;;;;;4400392;32;20490;-80
2022/11/16 00:29:05;;;;;;;3.45;1.92;;;6.70;99.90;;;;;;4396052;32;20110;-79
2022/11/16 00:31:30;;;;;;;5.03;2.55;;;6.70;99.90;;;;;;4397414;32;20743;-80
2022/11/16 00:33:56;;;;;;;5.53;1.87;;;6.70;99.90;;;;;;4377299;32;20077;-74
2022/11/16 00:36:21;;;;;;;1.65;1.55;;;6.60;99.90;;;;;;4372502;32;20106;-75
2022/11/16 00:38:51;;;;;;;16.33;2.37;;;6.60;99.90;;;;;;4397685;32;20082;-77
2022/11/16 00:41:16;;;;;;;3.53;1.55;;;6.60;99.90;;;;;;4397247;32;20061;-80
2022/11/16 00:43:42;;;;;;;2.08;1.65;;;6.60;99.90;;;;;;4399382;32;20188;-79
2022/11/16 00:46:08;;;;;;;3.58;2.08;;;6.60;99.90;;;;;;4398745;32;20180;-81
2022/11/16 00:48:33;;;;;;;1.20;1.05;;;6.50;99.90;;;;;;4389098;32;20077;-77
2022/11/16 00:50:59;;;;;;;2.42;2.08;;;6.50;99.90;;;;;;4391379;32;20459;-79
2022/11/16 00:53:25;;;;;;;3.47;1.98;;;6.50;99.90;;;;;;4399117;32;20081;-78
2022/11/16 00:55:50;;;;;;;22.35;2.53;;;6.50;99.90;;;;;;4400154;32;20113;-80
2022/11/16 00:58:16;;;;;;;4.70;1.60;;;6.40;99.90;;;;;;4397796;32;20074;-80
2022/11/16 01:00:42;;;;;;;2.20;1.58;;;6.40;99.90;;;;;;4398523;32;20096;-80
2022/11/16 01:03:08;;;;;;;4.35;1.95;;;6.40;99.90;;;;;;4390326;32;20550;-75
2022/11/16 01:05:34;;;;;;;1.00;1.00;;;6.40;99.90;;;;;;4368937;32;20148;-78
2022/11/16 01:07:59;;;;;;;3.20;1.42;;;6.60;99.90;;;;;;4388452;32;20094;-80
2022/11/16 01:10:26;;;;;;;7.87;2.62;;;6.50;99.90;;;;;;4398715;32;20119;-79
2022/11/16 01:12:51;;;;;;;0.90;0.90;;;6.50;99.90;;;;;;4397293;32;20121;-80
2022/11/16 01:15:19;;;;;;;2.47;1.25;;;6.50;99.90;;;;;;4398589;32;20116;-77
2022/11/16 01:17:45;;;;;;;4.28;1.58;;;6.40;99.90;;;;;;4392576;32;20065;-75
2022/11/16 01:20:14;;;;;;;2.22;1.62;;;6.40;99.90;;;;;;4389933;32;20548;-80
2022/11/16 01:22:40;;;;;;;11.20;2.10;;;6.50;99.90;;;;;;4400754;32;20077;-80
2022/11/16 01:25:07;;;;;;;3.08;1.75;;;6.40;99.90;;;;;;4396815;32;20842;-80
2022/11/16 01:27:33;;;;;;;1.77;1.15;;;6.40;99.90;;;;;;4398375;32;20112;-77
2022/11/16 01:29:58;;;;;;;5.50;1.77;;;6.40;99.90;;;;;;4403043;32;20105;-80
2022/11/16 01:32:24;;;;;;;2.70;1.50;;;6.40;99.90;;;;;;4400047;32;20106;-76
2022/11/16 01:34:49;;;;;;;4.28;2.10;;;6.30;99.90;;;;;;4368950;32;20463;-75
2022/11/16 01:37:16;;;;;;;13.65;3.25;;;6.30;99.90;;;;;;4388660;32;20089;-81
2022/11/16 01:39:42;;;;;;;2.00;1.27;;;6.30;99.90;;;;;;4399874;32;20058;-80
2022/11/16 01:42:18;;;;;;;1.08;1.08;;;6.40;99.90;;;;;;4400084;32;20085;-79
2022/11/16 01:44:45;;;;;;;3.15;1.58;;;6.40;99.90;;;;;;4400795;32;20118;-78
2022/11/16 01:47:16;;;;;;;1.33;1.23;;;6.40;99.90;;;;;;4398903;32;20067;-76
2022/11/16 01:49:46;;;;;;;4.97;2.70;;;6.40;99.90;;;;;;4386704;32;20113;-78
2022/11/16 01:52:17;;;;;;;2.33;1.75;;;6.40;99.90;;;;;;4399109;32;20097;-80
2022/11/16 01:54:45;;;;;;;1.15;1.12;;;6.40;99.90;;;;;;4396587;32;20066;-81
2022/11/16 01:57:14;;;;;;;2.03;1.73;;;6.40;99.90;;;;;;4398789;32;20082;-77
2022/11/16 01:59:42;;;;;;;1.87;1.37;;;6.40;99.90;;;;;;4398256;32;20121;-80
2022/11/16 02:02:07;;;;;;;4.43;2.22;;;6.30;99.90;;;;;;4400480;32;20074;-79
2022/11/16 02:04:33;;;;;;;3.87;1.70;;;6.30;99.90;;;;;;4372648;32;20546;-77
2022/11/16 02:09:52;;;;;;;4.65;2.62;;;6.30;99.90;;;;;;4386841;32;20530;-79
2022/11/16 02:10:42;;;;;;;11.63;2.37;;;6.20;99.90;;;;;;4376763;32;20105;-80
2022/11/16 02:13:36;;;;;;;2.03;1.83;;;6.30;99.90;;;;;;4398753;32;20134;-79
2022/11/16 02:16:37;;;;;;;6.40;2.03;;;6.30;99.90;;;;;;4388326;32;20074;-79
2022/11/16 02:19:26;;;;;;;6.57;2.62;;;6.30;99.90;;;;;;4378384;32;20606;-79
2022/11/16 02:22:16;;;;;;;2.80;1.83;;;6.30;99.90;;;;;;4401121;32;20113;-80
2022/11/16 02:24:51;;;;;;;2.05;1.58;;;6.20;99.90;;;;;;4385266;32;20086;-79
2022/11/16 02:27:49;;;;;;;6.90;2.40;;;6.30;99.90;;;;;;4401790;32;20089;-80
2022/11/16 02:30:16;;;;;;;9.20;1.85;;;6.20;99.90;;;;;;4387856;32;20114;-77
2022/11/16 02:33:06;;;;;;;2.30;1.52;;;6.10;99.90;;;;;;4398352;32;20130;-77
2022/11/16 02:35:39;;;;;;;2.45;1.87;;;6.10;99.90;;;;;;4361051;32;20563;-77
2022/11/16 02:38:10;;;;;;;6.43;2.12;;;6.10;99.90;;;;;;4393492;32;20228;-79
2022/11/16 02:40:41;;;;;;;14.45;2.80;;;6.10;99.90;;;;;;4397506;32;20120;-80
2022/11/16 02:43:08;;;;;;;;;;;6.10;99.90;;;;;;4400303;32;20082;-80
2022/11/16 02:45:39;;;;;;;3.50;2.05;;;6.00;99.90;;;;;;4401628;32;19949;-78
2022/11/16 02:48:13;;;;;;;3.40;2.17;;;6.00;99.90;;;;;;4394336;32;20556;-78
2022/11/16 02:50:40;;;;;;;3.62;2.55;;;6.00;99.90;;;;;;4392627;32;20081;-80
2022/11/16 02:53:06;;;;;;;20.05;1.80;;;6.00;99.90;;;;;;4401554;32;20082;-80
2022/11/16 02:55:33;;;;;;;5.50;2.40;;;6.00;99.90;;;;;;4397756;32;20078;-80
2022/11/16 02:58:01;;;;;;;1.58;1.48;;;6.10;99.90;;;;;;4398164;32;20085;-80
2022/11/16 03:00:42;;;;;;;2.15;1.77;;;6.10;99.90;;;;;;4398344;32;20097;-78
2022/11/16 03:03:15;;;;;;;;;;;6.10;99.90;;;;;;4391513;32;20069;-75
2022/11/16 03:05:47;;;;;;;1.00;0.95;;;6.10;99.90;;;;;;4371821;32;20369;-75
2022/11/16 03:08:38;;;;;;;2.40;1.52;;;6.10;99.90;;;;;;4394628;32;20164;-79
2022/11/16 03:12:07;;;;;;;1.05;1.05;;;6.20;99.90;;;;;;4381687;32;20098;-80
2022/11/16 03:13:58;;;;;;;3.10;1.67;;;6.20;99.90;;;;;;4393052;32;20069;-78
2022/11/16 03:16:30;;;;;;;4.00;2.17;;;6.10;99.90;;;;;;4399222;32;20101;-80
2022/11/16 03:18:59;;;;;;;8.85;1.52;;;6.30;99.90;;;;;;4390177;32;20092;-75
2022/11/16 03:21:31;;;;;;;3.72;2.55;;;6.20;99.90;;;;;;4396524;32;20178;-77
2022/11/16 03:23:56;;;;;;;3.35;1.58;;;6.20;99.90;;;;;;4399035;32;20065;-79
2022/11/16 03:26:32;;;;;;;1.75;1.42;;;6.20;99.90;;;;;;4400675;32;20489;-79
2022/11/16 03:29:11;;;;;;;4.12;2.50;;;6.20;99.90;;;;;;4398799;32;20066;-76
2022/11/16 03:31:46;;;;;;;6.60;2.10;;;6.20;99.90;;;;;;4400173;32;20070;-81
2022/11/16 03:34:17;;;;;;;3.00;1.25;;;6.10;99.90;;;;;;4377822;32;20066;-76
2022/11/16 03:36:45;;;;;;;2.17;1.75;;;6.00;99.90;;;;;;4380504;32;20588;-80
2022/11/16 03:39:17;;;;;;;2.15;1.42;;;6.00;99.90;;;;;;4399673;32;20090;-80
2022/11/16 03:41:44;;;;;;;1.85;1.50;;;6.00;99.90;;;;;;4400230;32;20066;-80
2022/11/16 03:44:13;;;;;;;2.87;1.50;;;6.00;99.90;;;;;;4398545;32;20085;-81
2022/11/16 03:46:41;;;;;;;1.58;1.45;;;6.10;99.90;;;;;;4399224;32;20109;-80
2022/11/16 03:49:07;;;;;;;3.17;1.52;;;6.20;99.90;;;;;;4385412;32;20094;-75
2022/11/16 03:51:32;;;;;;;2.12;1.65;;;6.20;99.90;;;;;;4396455;32;20094;-81
2022/11/16 03:53:58;;;;;;;7.53;2.03;;;6.10;99.90;;;;;;4399842;32;20407;-76
2022/11/16 03:56:24;;;;;;;5.47;1.62;;;6.10;99.90;;;;;;4397233;32;20102;-79
2022/11/16 03:58:49;;;;;;;1.98;1.42;;;6.10;99.90;;;;;;4401865;32;20070;-80
2022/11/16 04:01:14;;;;;;;1.10;1.10;;;6.10;99.90;;;;;;4398902;32;20121;-80
2022/11/16 04:03:40;;;;;;;3.33;2.12;;;6.10;99.90;;;;;;4384699;32;20078;-73
2022/11/16 04:24:12;;;;;;;2.37;2.08;;;6.30;99.90;;;;;;4389392;32;20114;-81
2022/11/16 04:25:44;;;;;;;4.62;2.50;;;6.20;99.90;;;;;;4385875;32;20121;-79
2022/11/16 04:28:13;;;;;;;8.07;2.87;;;6.20;99.90;;;;;;4395923;32;20132;-78
2022/11/16 04:37:47;;;;;;;1.50;1.35;;;6.20;99.90;;;;;;4368623;32;20069;-75
2022/11/16 04:39:01;;;;;;;2.35;1.67;;;6.20;99.90;;;;;;4388315;32;20077;-79
2022/11/16 04:42:29;;;;;;;4.85;2.95;;;6.20;99.90;;;;;;4400182;32;20141;-80
2022/11/16 04:44:15;;;;;;;1.55;1.45;;;6.30;99.90;;;;;;4390120;32;20107;-80
2022/11/16 04:47:12;;;;;;;5.82;2.42;;;6.30;99.90;;;;;;4399810;32;20061;-80
2022/11/16 04:49:26;;;;;;;10.80;2.75;;;6.30;99.90;;;;;;4377216;32;20493;-78
2022/11/16 04:51:51;;;;;;;2.28;1.85;;;6.30;99.90;;;;;;4398768;32;20081;-80
2022/11/16 04:54:17;;;;;;;7.93;2.75;;;6.30;99.90;;;;;;4400496;32;20521;-81
2022/11/16 04:56:42;;;;;;;6.35;3.35;;;6.30;99.90;;;;;;4398649;32;20104;-80
2022/11/16 04:59:08;;;;;;;6.45;2.65;;;6.30;99.90;;;;;;4399372;32;20474;-79
2022/11/16 05:02:33;;;;;;;5.00;3.05;;;6.40;99.90;;;;;;4400816;32;20071;-81
2022/11/16 05:04:19;;;;;;;4.35;2.05;;;6.40;99.90;;;;;;4362226;32;20616;-74
2022/11/16 05:06:45;;;;;;;1.85;1.60;;;6.40;99.90;;;;;;4380693;32;20066;-79
2022/11/16 05:09:11;;;;;;;5.60;2.45;;;6.40;99.90;;;;;;4399081;32;20086;-80
2022/11/16 05:11:36;;;;;;;9.13;2.37;;;6.40;99.90;;;;;;4397592;32;20078;-78
2022/11/16 05:14:02;;;;;;;7.35;2.62;;;6.50;99.90;;;;;;4400653;32;20106;-80
2022/11/16 05:16:27;;;;;;;4.07;2.30;;;6.60;99.90;;;;;;4397206;32;20090;-78
2022/11/16 05:21:00;;;;;;;5.85;1.98;;;6.60;99.90;;;;;;4390590;32;20077;-78
2022/11/16 05:21:38;;;;;;;9.60;4.22;;;6.70;99.90;;;;;;4378146;32;20125;-75
2022/11/16 05:24:33;;;;;;;4.55;2.17;;;6.70;99.90;;;;;;4359797;32;20400;-77
2022/11/16 05:26:49;;;;;;;6.93;3.40;;;6.70;99.90;;;;;;4352688;32;20523;-74
2022/11/16 05:29:15;;;;;;;6.85;2.47;;;6.70;99.90;;;;;;4357676;32;20089;-76
2022/11/16 05:31:40;;;;;;;2.58;1.98;;;6.70;99.90;;;;;;4367405;32;20577;-74
2022/11/16 05:34:08;;;;;;;3.12;2.12;;;6.70;99.90;;;;;;4337932;32;20355;-75
2022/11/16 05:36:34;;;;;;;3.47;2.55;;;6.80;99.90;;;;;;4352714;32;20633;-74
2022/11/16 05:39:00;;;;;;;9.40;2.85;;;6.90;99.90;;;;;;4397698;32;20109;-78
2022/11/16 05:41:25;;;;;;;6.20;2.47;;;6.90;99.90;;;;;;4397380;32;20073;-78
2022/11/16 05:43:51;;;;;;;4.12;2.67;;;6.80;99.90;;;;;;4399222;32;20402;-79
2022/11/16 05:46:16;;;;;;;5.82;3.33;;;6.80;99.90;;;;;;4397444;32;20110;-77
2022/11/16 05:48:41;;;;;;;4.75;3.22;;;6.80;99.90;;;;;;4389725;32;20074;-75
2022/11/16 05:51:07;;;;;;;5.93;2.30;;;6.80;99.90;;;;;;4392745;32;20082;-78
2022/11/16 05:53:32;;;;;;;11.12;3.25;;;6.90;99.90;;;;;;4361880;32;20070;-74
2022/11/16 05:55:58;;;;;;;11.57;3.30;;;6.80;99.90;;;;;;4365050;32;20586;-76
2022/11/16 05:58:23;;;;;;;4.43;2.33;;;6.80;99.90;;;;;;4392659;32;20074;-78
2022/11/16 06:00:49;;;;;;;3.70;2.80;;;6.80;99.90;;;;;;4391340;32;20158;-75
2022/11/16 06:03:15;;;;;;;1.98;1.83;;;6.90;99.90;;;;;;4372795;32;21064;-73
2022/11/16 06:05:41;;;;;;;8.38;3.20;;;6.90;99.90;;;;;;4348363;32;20077;-75
2022/11/16 06:08:07;;;;;;;4.15;2.50;;;6.90;99.90;;;;;;4359207;32;20232;-74
2022/11/16 06:10:33;;;;;;;4.00;3.15;;;6.90;99.90;;;;;;4362953;32;20373;-74
2022/11/16 06:12:58;;;;;;;6.43;2.60;;;6.90;99.90;;;;;;4356903;32;20313;-74
2022/11/16 06:15:24;;;;;;;5.28;3.47;;;6.90;99.90;;;;;;4358336;32;20082;-74
2022/11/16 06:17:49;;;;;;;6.65;3.67;;;6.90;99.90;;;;;;4341973;32;20294;-75
2022/11/16 06:20:15;;;;;;;3.97;3.00;;;7.00;99.90;;;;;;4312623;32;20106;-74
2022/11/16 06:22:41;;;;;;;5.12;3.03;;;7.00;99.90;;;;;;4325438;32;20568;-75
2022/11/16 06:25:07;;;;;;;6.40;2.35;;;7.00;99.90;;;;;;4291848;32;20180;-75
2022/11/16 06:27:32;;;;;;;5.10;2.65;;;7.00;99.90;;;;;;4336859;32;20314;-75
2022/11/16 06:29:57;;;;;;;3.30;2.10;;;7.10;99.90;;;;;;4303718;32;20333;-73
2022/11/16 06:32:23;;;;;;;14.85;3.50;;;7.00;99.90;;;;;;4299852;32;20110;-74
2022/11/16 06:34:48;;;;;;;8.43;3.80;;;7.00;99.90;;;;;;4313350;32;20577;-75
2022/11/16 06:37:14;;;;;;;7.82;3.05;;;7.00;99.90;;;;;;4321267;32;20431;-73
2022/11/16 06:39:40;;;;;;;7.62;3.47;;;7.00;99.90;;;;;;4327190;32;20289;-74
2022/11/16 06:42:05;;;;;;;4.35;2.58;;;7.00;99.90;;;;;;4325698;32;20878;-74
2022/11/16 06:44:31;;;;;;;10.32;2.85;;;7.00;99.90;;;;;;4344624;32;20400;-76
2022/11/16 06:46:56;;;;;;;11.63;3.37;;;7.00;99.90;;;;;;4349080;32;20110;-75
2022/11/16 06:49:22;;;;;;;14.55;3.33;;;7.00;99.90;;;;;;4348124;32;20137;-75
2022/11/16 06:51:47;;;;;;;6.40;3.67;;;7.00;99.90;;;;;;4351577;32;20126;-77
2022/11/16 06:54:13;;;;;;;27.62;4.20;;;7.10;99.90;;;;;;4356800;32;20994;-76
2022/11/16 06:56:39;;;;;;;7.95;2.72;;;7.10;99.90;;;;;;4362530;32;20612;-77
2022/11/16 06:59:04;;;;;;;9.65;3.87;;;7.00;99.90;;;;;;4349590;32;20126;-76
2022/11/16 07:01:30;;;;;;;3.47;2.90;;;7.10;99.90;;;;;;4330440;32;20122;-76
2022/11/16 07:03:56;;;;;;;9.40;5.57;;;7.10;99.90;;;;;;4325949;32;20241;-76
2022/11/16 07:06:21;;;;;;;6.95;3.92;;;7.00;99.90;;;;;;4335725;32;20125;-76
2022/11/16 07:08:47;;;;;;;5.07;3.28;;;7.20;99.90;;;;;;4340146;32;20137;-77
2022/11/16 07:11:12;;;;;;;3.85;2.42;;;7.10;99.90;;;;;;4347963;32;20232;-77
2022/11/16 07:13:38;;;;;;;15.82;4.28;;;7.10;99.90;;;;;;4359659;32;20094;-77
2022/11/16 07:16:06;;;;;;;10.85;3.17;;;7.10;99.90;;;;;;4359379;32;20118;-76
2022/11/16 07:18:38;;;;;;;19.27;4.15;;;7.10;99.90;;;;;;4339918;32;20086;-76
2022/11/16 07:21:06;;;;;;;3.90;2.80;;;7.10;99.90;;;;;;4347812;32;20179;-76
2022/11/16 07:23:31;;;;;;;7.43;3.05;;;7.10;99.90;;;;;;4346775;32;20093;-76
2022/11/16 07:26:00;;;;;;;22.30;4.22;;;7.00;99.90;;;;;;4353830;32;20530;-76
2022/11/16 07:28:27;;;;;;;10.20;4.70;;;7.10;99.90;;;;;;4351940;32;20166;-75
2022/11/16 07:30:52;;;;;;;6.93;3.92;;;7.10;99.90;;;;;;4339764;32;115205;-76
2022/11/16 07:33:18;;;;;;;4.03;2.30;;;7.20;99.90;;;;;;4333936;32;20175;-76
2022/11/16 07:35:43;;;;;;;5.03;3.78;;;7.20;99.90;;;;;;4336051;32;21014;-76
2022/11/16 07:38:09;;;;;;;7.87;4.65;;;7.10;99.90;;;;;;4351905;32;20094;-76
2022/11/16 07:40:34;;;;;;;23.27;2.80;;;7.10;99.90;;;;;;4349997;32;20106;-75
2022/11/16 07:43:00;;;;;;;7.45;3.37;;;7.20;99.90;;;;;;4350200;32;20243;-77
2022/11/16 07:45:25;;;;;;;11.35;4.12;;;7.20;99.90;;;;;;4347819;32;20093;-76
2022/11/16 07:47:52;;;;;;;11.10;3.17;;;7.20;99.90;;;;;;4344104;32;21884;-76
2022/11/16 07:50:17;;;;;;;5.43;3.03;;;7.20;99.90;;;;;;4339649;32;20122;-74
2022/11/16 07:52:45;;;;;;;4.05;3.20;;;7.30;99.90;;;;;;4336792;32;20149;-76
2022/11/16 07:55:11;;;;;;;9.18;3.12;;;7.20;99.90;;;;;;4347203;32;20628;-75
2022/11/16 07:57:37;;;;;;;5.95;3.35;;;7.30;99.90;;;;;;4354470;32;20097;-77
2022/11/16 08:00:04;;;;;;;13.13;3.42;;;7.30;99.90;;;;;;4331851;32;20633;-74
2022/11/16 08:02:29;;;;;;;8.10;2.92;;;7.30;99.90;;;;;;4327366;32;20261;-74
2022/11/16 08:04:55;;;;;;;23.40;5.32;;;7.30;99.90;;;;;;4309622;32;20186;-75
2022/11/16 08:07:20;;;;;;;6.18;3.72;;;7.20;99.90;;;;;;4337124;32;20113;-77
2022/11/16 08:09:48;;;;;;;9.40;3.30;;;7.30;99.90;;;;;;4340915;32;20184;-76
2022/11/16 08:12:14;;;;;;;10.02;3.65;;;7.30;99.90;;;;;;4338953;32;20292;-76
2022/11/16 08:14:40;;;;;;;10.50;3.12;;;7.30;99.90;;;;;;4342203;32;20089;-73
2022/11/16 08:17:07;;;;;;;17.20;2.92;;;7.30;99.90;;;;;;4344627;32;20101;-74
2022/11/16 08:19:33;;;;;;;10.13;3.97;;;7.30;99.90;;;;;;4337701;32;20756;-74
2022/11/16 08:21:58;;;;;;;5.93;2.50;;;7.20;99.90;;;;;;4333432;32;21016;-74
2022/11/16 08:24:24;;;;;;;10.00;3.42;;;7.20;99.90;;;;;;4342617;32;20183;-74
2022/11/16 08:26:49;;;;;;;6.20;3.33;;;7.30;99.90;;;;;;4352171;32;20705;-75
2022/11/16 08:29:15;;;;;;;10.23;4.07;;;7.30;99.90;;;;;;4338776;32;20351;-74
2022/11/16 08:31:43;;;;;;;20.10;3.50;;;7.30;99.90;;;;;;4329946;32;20237;-75
2022/11/16 08:34:10;;;;;;;7.55;3.83;;;7.30;99.90;;;;;;4313677;32;20842;-75
2022/11/16 08:36:35;;;;;;;11.30;2.37;;;7.30;99.90;;;;;;4342602;32;20106;-77
2022/11/16 08:39:02;;;;;;;7.53;3.78;;;7.30;99.90;;;;;;4359033;32;20711;-78
2022/11/16 08:41:29;;;;;;;5.15;2.45;;;7.30;99.90;;;;;;4350953;32;20360;-75
2022/11/16 08:43:55;;;;;;;14.55;2.72;;;7.20;99.90;;;;;;4371542;32;20230;-76
2022/11/16 08:46:20;;;;;;;6.65;3.53;;;7.20;99.90;;;;;;4367393;32;20236;-78
2022/11/16 08:48:46;;;;;;;18.60;3.15;;;7.20;99.90;;;;;;4345429;32;20459;-76
2022/11/16 08:51:14;;;;;;;15.05;3.92;;;7.20;99.90;;;;;;4332171;32;20361;-74
2022/11/16 08:53:40;;;;;;;11.15;4.20;;;7.20;99.90;;;;;;4332794;32;20589;-75
2022/11/16 08:56:08;;;;;;;4.70;3.03;;;7.20;99.90;;;;;;4342869;32;20123;-75
2022/11/16 08:58:35;;;;;;;10.80;3.60;;;7.20;99.90;;;;;;4351212;32;20117;-75
2022/11/16 09:01:18;;;;;;;4.75;2.42;;;7.20;99.90;;;;;;4333595;32;21599;-75
2022/11/16 09:03:44;;;;;;;12.98;3.53;;;7.20;99.90;;;;;;4321691;32;20483;-75
2022/11/16 09:06:10;;;;;;;1.67;1.55;;;7.20;99.90;;;;;;4331679;32;20098;-77
2022/11/16 09:08:38;;;;;;;7.78;3.33;;;7.10;99.90;;;;;;4347778;32;20537;-75
2022/11/16 09:11:06;;;;;;;2.45;1.95;;;7.10;99.90;;;;;;4349125;32;20127;-75
2022/11/16 09:13:31;;;;;;;16.23;3.00;;;7.10;99.90;;;;;;4350803;32;20113;-76
2022/11/16 09:15:58;;;;;;;16.48;3.55;;;7.10;99.90;;;;;;4356457;32;20101;-75
2022/11/16 09:18:24;;;;;;;6.35;3.15;;;7.20;99.90;;;;;;4338641;32;20090;-77
2022/11/16 09:20:50;;;;;;;4.15;2.33;;;7.20;99.90;;;;;;4339239;32;20100;-76
2022/11/16 09:23:15;;;;;;;6.12;2.70;;;7.20;99.90;;;;;;4343157;32;20263;-76
2022/11/16 09:25:43;;;;;;;5.03;1.73;;;7.20;99.90;;;;;;4352275;32;20126;-75
2022/11/16 09:28:10;;;;;;;8.38;4.12;;;7.30;99.90;;;;;;4352036;32;20364;-75
2022/11/16 09:30:35;;;;;;;4.53;3.17;;;7.30;99.90;;;;;;4338798;32;20920;-78
2022/11/16 09:33:01;;;;;;;13.90;2.53;;;7.30;99.90;;;;;;4325055;32;20192;-78
2022/11/16 09:35:26;;;;;;;3.92;2.75;;;7.30;99.90;;;;;;4334337;32;20102;-76
2022/11/16 09:37:52;;;;;;;4.32;2.97;;;7.30;99.90;;;;;;4353203;32;20776;-76
2022/11/16 09:40:17;;;;;;;6.60;2.33;;;7.30;99.90;;;;;;4352452;32;20084;-76
2022/11/16 09:43:23;;;;;;;4.43;2.55;;;7.30;99.90;;;;;;4348746;32;20098;-76
2022/11/16 09:45:58;;;;;;;6.28;2.83;;;7.20;99.90;;;;;;4338379;32;20089;-77
2022/11/16 09:48:24;;;;;;;8.32;3.37;;;7.30;99.90;;;;;;4347255;32;20877;-76
2022/11/16 09:50:58;;;;;;;8.90;4.05;;;7.30;99.90;;;;;;4336526;32;20081;-75
2022/11/16 09:53:46;;;;;;;19.50;1.90;;;7.30;99.90;;;;;;4344797;32;20097;-76
2022/11/16 09:56:17;;;;;;;12.20;1.83;;;7.40;99.90;;;;;;4344186;32;20585;-76
2022/11/16 09:58:54;;;;;;;2.08;1.65;;;7.30;99.90;;;;;;4360424;32;20141;-76
2022/11/16 10:01:26;;;;;;;20.77;2.17;;;7.30;99.90;;;;;;4340872;32;21010;-76
2022/11/16 10:03:59;;;;;;;3.22;1.58;;;7.30;99.90;;;;;;4325801;32;20452;-75
2022/11/16 10:06:36;;;;;;;6.35;2.55;;;7.30;99.90;;;;;;4344313;32;20081;-76
2022/11/16 10:09:02;;;;;;;3.90;1.75;;;7.30;99.90;;;;;;4357027;32;20101;-75
2022/11/16 10:11:53;;;;;;;2.72;1.85;;;7.30;99.90;;;;;;4354328;32;20288;-76
2022/11/16 10:14:43;;;;;;;1.17;1.15;;;7.30;99.90;;;;;;4344588;32;20581;-76
2022/11/16 10:17:28;;;;;;;3.40;1.37;;;7.30;99.90;;;;;;4344449;32;20809;-76
2022/11/16 10:20:27;;;;;;;7.75;1.73;;;7.30;99.90;;;;;;4322360;32;20621;-75
2022/11/16 10:23:33;;;;;;;0.82;0.82;;;7.30;99.90;;;;;;4313015;32;21734;-77
2022/11/16 10:26:15;;;;;;;0.95;0.90;;;7.40;99.90;;;;;;4330425;32;20110;-76
2022/11/16 10:29:10;;;;;;;3.50;1.87;;;7.40;99.90;;;;;;4349050;32;20169;-74
2022/11/16 10:31:54;;;;;;;18.80;1.15;;;7.30;99.90;;;;;;4322233;32;20106;-76
2022/11/16 10:34:24;;;;;;;2.55;1.80;;;7.20;99.90;;;;;;4315736;32;20319;-77
2022/11/16 10:36:50;;;;;;;6.85;1.75;;;7.20;99.90;;;;;;4332214;32;20413;-77
2022/11/16 10:39:18;;;;;;;2.72;1.55;;;7.30;99.90;;;;;;4347764;32;21004;-78
2022/11/16 10:41:49;;;;;;;1.67;1.25;;;7.30;99.90;;;;;;4344631;32;20417;-77
2022/11/16 10:44:38;;;;;;;2.95;1.55;;;7.40;99.90;;;;;;4358130;32;20106;-79
2022/11/16 10:47:12;;;;;;;3.78;1.15;;;7.40;99.90;;;;;;4343856;32;20114;-80
2022/11/16 10:49:59;;;;;;;5.25;2.90;;;7.30;99.90;;;;;;4348963;32;20089;-76
2022/11/16 10:52:25;;;;;;;2.08;1.37;;;7.30;99.90;;;;;;4339764;32;21381;-77
2022/11/16 10:54:51;;;;;;;1.85;1.58;;;7.30;99.90;;;;;;4347661;32;20113;-75
2022/11/16 10:57:17;;;;;;;1.33;1.10;;;7.30;99.90;;;;;;4349814;32;20097;-77
2022/11/16 10:59:48;;;;;;;0.80;0.80;;;7.30;99.90;;;;;;4338180;32;20719;-75
2022/11/16 11:02:24;;;;;;;;;;;7.30;99.90;;;;;;4335375;32;20347;-76
2022/11/16 11:05:19;;;;;;;0.98;0.98;;;7.30;99.90;;;;;;4304679;32;20096;-75
2022/11/16 11:07:50;;;;;;;4.37;1.77;;;7.20;99.90;;;;;;4333902;32;20098;-75
2022/11/16 11:10:34;;;;;;;1.75;1.58;;;7.30;99.90;;;;;;4354267;32;20177;-74
2022/11/16 11:13:02;;;;;;;1.27;1.17;;;7.30;99.90;;;;;;4355537;32;20440;-74
2022/11/16 11:15:28;;;;;;;4.93;2.45;;;7.30;99.90;;;;;;4344922;32;20516;-76
2022/11/16 11:18:16;;;;;;;1.27;1.17;;;7.30;99.90;;;;;;4335152;32;21049;-77
2022/11/16 11:20:45;;;;;;;2.37;1.08;;;7.30;99.90;;;;;;4324846;32;20857;-77
2022/11/16 11:23:20;;;;;;;2.92;1.27;;;7.30;99.90;;;;;;4335366;32;20074;-79
2022/11/16 11:25:51;;;;;;;1.55;0.82;;;7.30;99.90;;;;;;4355710;32;20157;-76
2022/11/16 11:28:20;;;;;;;4.85;1.67;;;7.30;99.90;;;;;;4366665;32;20255;-76
2022/11/16 11:31:05;;;;;;;3.10;1.62;;;7.20;99.90;;;;;;4351287;32;21265;-75
2022/11/16 11:33:36;;;;;;;2.97;1.62;;;7.20;99.90;;;;;;4333618;32;20624;-75
2022/11/16 11:36:07;;;;;;;0.60;0.60;;;7.20;99.90;;;;;;4353279;32;20121;-76
2022/11/16 11:38:33;;;;;;;;;;;7.30;99.90;;;;;;4364790;32;20105;-77
2022/11/16 11:41:01;;;;;;;1.25;1.08;;;7.20;99.90;;;;;;4370042;32;19985;-77
2022/11/16 11:43:28;;;;;;;0.50;0.50;;;7.20;99.90;;;;;;4377878;32;20796;-78
2022/11/16 11:46:02;;;;;;;4.78;1.42;;;7.20;99.90;;;;;;4371363;32;20085;-77
2022/11/16 11:48:36;;;;;;;3.17;1.67;;;7.20;99.90;;;;;;4367271;32;20251;-77
2022/11/16 11:51:32;;;;;;;0.95;0.95;;;7.20;99.90;;;;;;4327337;32;20961;-76
2022/11/16 11:54:01;;;;;;;2.12;1.37;;;7.20;99.90;;;;;;4351582;32;20972;-79
2022/11/16 11:56:29;;;;;;;1.65;1.33;;;7.20;99.90;;;;;;4358168;32;20249;-79
2022/11/16 11:58:55;;;;;;;1.08;1.08;;;7.30;99.90;;;;;;4362835;32;20126;-77
2022/11/16 12:01:43;;;;;;;3.47;1.62;;;7.30;99.90;;;;;;4350798;32;20328;-79
2022/11/16 12:04:45;;;;;;;2.08;1.67;;;7.30;99.90;;;;;;4337174;32;20391;-77
2022/11/16 12:07:25;;;;;;;7.22;1.75;;;7.40;99.90;;;;;;4353343;32;20105;-81
2022/11/16 12:10:04;;;;;;;1.00;1.00;;;7.40;99.90;;;;;;4368461;32;20441;-78
2022/11/16 12:12:46;;;;;;;1.90;1.27;;;7.30;99.90;;;;;;4360786;32;20626;-78
2022/11/16 12:15:33;;;;;;;1.10;1.00;;;7.40;99.90;;;;;;4373102;32;21122;-80
2022/11/16 12:18:27;;;;;;;1.12;1.02;;;7.30;99.90;;;;;;4345868;32;20867;-77
2022/11/16 12:21:08;;;;;;;1.85;1.73;;;7.30;99.90;;;;;;4337840;32;20233;-79
2022/11/16 12:23:45;;;;;;;6.90;2.08;;;7.30;99.90;;;;;;4346241;32;20106;-78
2022/11/16 12:26:21;;;;;;;0.62;0.62;;;7.30;99.90;;;;;;4350817;32;20102;-78
2022/11/16 12:28:57;;;;;;;2.70;1.15;;;7.30;99.90;;;;;;4348983;32;20188;-77
2022/11/16 12:31:33;;;;;;;1.25;1.15;;;7.20;99.90;;;;;;4323508;32;20811;-78
2022/11/16 12:34:17;;;;;;;0.70;0.70;;;7.20;99.90;;;;;;4321374;32;20518;-76
2022/11/16 12:37:03;;;;;;;2.90;1.37;;;7.30;99.90;;;;;;4347300;32;21197;-78
2022/11/16 12:39:34;;;;;;;1.02;1.00;;;7.30;99.90;;;;;;4342918;32;20641;-79
2022/11/16 12:42:05;;;;;;;;;;;7.40;99.90;;;;;;4348225;32;20256;-78
2022/11/16 12:44:48;;;;;;;1.45;0.98;;;7.40;99.90;;;;;;4338827;32;20656;-77
2022/11/16 12:47:43;;;;;;;0.88;0.88;;;7.40;99.90;;;;;;4347334;32;20077;-76
2022/11/16 12:50:42;;;;;;;5.30;1.77;;;7.30;99.90;;;;;;4337512;32;20834;-78
2022/11/16 12:53:18;;;;;;;2.15;1.95;;;7.40;99.90;;;;;;4344742;32;20447;-76
2022/11/16 12:56:01;;;;;;;2.15;1.25;;;7.40;99.90;;;;;;4362559;32;20985;-77
2022/11/16 12:59:05;;;;;;;2.22;1.58;;;7.30;99.90;;;;;;4366131;32;20301;-77
2022/11/16 13:01:44;;;;;;;1.00;0.73;;;7.30;99.90;;;;;;4329512;32;20299;-78
2022/11/16 13:04:17;;;;;;;1.17;1.00;;;7.30;99.90;;;;;;4347569;32;20244;-76
2022/11/16 13:06:57;;;;;;;4.03;1.58;;;7.30;99.90;;;;;;4359339;32;20085;-77
2022/11/16 13:09:28;;;;;;;9.13;2.10;;;7.30;99.90;;;;;;4359144;32;20492;-76
2022/11/16 13:11:57;;;;;;;2.55;1.12;;;7.30;99.90;;;;;;4351047;32;20141;-75
2022/11/16 13:14:38;;;;;;;0.90;0.82;;;7.30;99.90;;;;;;4364026;32;20101;-76
2022/11/16 13:17:05;;;;;;;2.62;1.20;;;7.30;99.90;;;;;;4363453;32;20098;-75
2022/11/16 13:19:31;;;;;;;1.20;1.10;;;7.30;99.90;;;;;;4356012;32;21035;-76
2022/11/16 13:22:09;;;;;;;1.52;1.25;;;7.30;99.90;;;;;;4350463;32;20758;-77
2022/11/16 13:24:57;;;;;;;0.68;0.68;;;7.40;99.90;;;;;;4344096;32;20512;-77
2022/11/16 13:27:34;;;;;;;0.77;0.77;;;7.40;99.90;;;;;;4367151;32;20581;-78
2022/11/16 13:30:06;;;;;;;14.10;1.87;;;7.40;99.90;;;;;;4346524;32;20280;-77
2022/11/16 13:32:41;;;;;;;0.73;0.70;;;7.50;99.90;;;;;;4339827;32;20581;-76
2022/11/16 13:35:13;;;;;;;1.65;1.12;;;7.50;99.90;;;;;;4344740;32;20245;-78
2022/11/16 13:37:43;;;;;;;1.58;1.48;;;7.50;99.90;;;;;;4362453;32;20106;-76
2022/11/16 13:40:19;;;;;;;3.03;1.48;;;7.50;99.90;;;;;;4366324;32;20139;-78
2022/11/16 13:43:00;;;;;;;2.00;1.48;;;7.50;99.90;;;;;;4375352;32;20333;-79